createdAt,value
2023-04-16T00:01:26.595Z,102666.28
2023-04-16T00:03:54.279Z,102665.31
2023-04-16T00:06:21.046Z,102661.25
2023-04-16T00:08:47.520Z,102670.06
2023-04-16T00:11:14.166Z,102672.00
2023-04-16T00:13:40.818Z,102677.06
2023-04-16T00:16:07.777Z,102665.25
2023-04-16T00:18:34.337Z,102680.16
2023-04-16T00:21:01.239Z,102678.38
2023-04-16T00:23:27.813Z,102681.31
2023-04-16T00:25:54.441Z,102669.56
2023-04-16T00:28:21.180Z,102659.50
2023-04-16T00:30:47.687Z,102642.25
2023-04-16T00:33:14.178Z,102649.41
2023-04-16T00:35:40.679Z,102612.94
2023-04-16T00:38:07.404Z,102570.94
2023-04-16T00:40:34.031Z,102573.28
2023-04-16T00:43:00.591Z,102549.53
2023-04-16T00:45:27.297Z,102545.75
2023-04-16T00:47:54.022Z,102536.19
2023-04-16T00:50:20.795Z,102488.19
2023-04-16T00:52:48.858Z,102465.56
2023-04-16T00:55:16.516Z,102530.16
2023-04-16T00:57:43.506Z,102489.09
2023-04-16T01:00:10.598Z,102434.56
2023-04-16T01:02:38.110Z,102408.31
2023-04-16T01:05:05.511Z,102393.69
2023-04-16T01:07:32.074Z,102379.09
2023-04-16T01:09:58.483Z,102300.97
2023-04-16T01:12:25.126Z,102329.47
2023-04-16T01:14:51.654Z,102343.50
2023-04-16T01:17:18.119Z,102325.53
2023-04-16T01:19:44.534Z,102335.69
2023-04-16T01:22:11.024Z,102352.56
2023-04-16T01:24:38.136Z,102294.97
2023-04-16T01:27:04.628Z,102357.34
2023-04-16T01:29:31.292Z,102366.78
2023-04-16T01:31:57.758Z,102356.22
2023-04-16T01:34:24.173Z,102269.56
2023-04-16T01:36:50.752Z,102288.19
2023-04-16T01:39:17.360Z,102309.97
2023-04-16T01:41:43.802Z,102283.31
2023-04-16T01:44:10.360Z,102295.69
2023-04-16T01:46:38.166Z,102289.75
2023-04-16T01:49:05.485Z,102198.56
2023-04-16T01:51:31.928Z,102241.16
2023-04-16T01:53:58.503Z,102245.53
2023-04-16T01:56:25.513Z,102222.31
2023-04-16T01:58:52.709Z,102160.84
2023-04-16T02:01:19.379Z,102203.59
2023-04-16T02:03:46.498Z,102160.00
2023-04-16T02:06:13.187Z,102180.41
2023-04-16T02:08:39.638Z,102162.69
2023-04-16T02:11:06.092Z,102131.22
2023-04-16T02:13:32.537Z,102159.47
2023-04-16T02:15:59.038Z,102121.97
2023-04-16T02:18:25.545Z,102140.84
2023-04-16T02:20:51.982Z,102143.44
2023-04-16T02:23:18.512Z,102125.34
2023-04-16T02:25:46.634Z,102125.47
2023-04-16T02:28:14.967Z,102125.25
2023-04-16T02:30:42.061Z,102094.81
2023-04-16T02:33:10.538Z,102109.41
2023-04-16T02:35:38.385Z,102091.84
2023-04-16T02:38:05.515Z,102118.78
2023-04-16T02:40:32.361Z,102126.59
2023-04-16T02:42:58.921Z,102128.03
2023-04-16T02:45:25.430Z,102102.59
2023-04-16T02:47:52.201Z,102136.81
2023-04-16T02:50:18.789Z,102160.03
2023-04-16T02:52:45.378Z,102215.69
2023-04-16T02:55:12.021Z,102180.16
2023-04-16T02:57:38.860Z,102241.31
2023-04-16T03:00:06.037Z,102242.44
2023-04-16T03:02:32.726Z,102286.31
2023-04-16T03:04:59.212Z,102415.66
2023-04-16T03:07:25.680Z,102475.19
2023-04-16T03:09:52.437Z,102624.91
2023-04-16T03:12:18.965Z,102683.50
2023-04-16T03:14:45.386Z,102672.66
2023-04-16T03:17:11.899Z,102667.38
2023-04-16T03:19:38.568Z,102809.28
2023-04-16T03:22:05.053Z,102853.91
2023-04-16T03:24:31.527Z,102924.38
2023-04-16T03:26:58.451Z,102924.09
2023-04-16T03:29:25.480Z,102867.75
2023-04-16T03:31:51.983Z,102915.97
2023-04-16T03:34:18.526Z,102869.72
2023-04-16T03:36:45.028Z,102895.56
2023-04-16T03:39:11.603Z,103027.53
2023-04-16T03:41:38.138Z,102913.38
2023-04-16T03:44:04.545Z,102901.31
2023-04-16T03:46:31.179Z,103082.72
2023-04-16T03:48:57.697Z,103224.69
2023-04-16T03:51:24.170Z,103239.03
2023-04-16T03:53:50.658Z,103467.16
2023-04-16T03:56:18.127Z,103572.00
2023-04-16T03:58:44.691Z,103605.13
2023-04-16T04:01:11.127Z,103626.22
2023-04-16T04:03:37.851Z,103694.59
2023-04-16T04:06:08.400Z,103795.66
2023-04-16T04:08:34.894Z,103932.31
2023-04-16T04:11:01.394Z,103973.78
2023-04-16T04:13:27.989Z,104083.44
2023-04-16T04:15:54.466Z,104176.25
2023-04-16T04:18:20.998Z,104202.50
2023-04-16T04:20:47.396Z,104348.22
2023-04-16T04:23:14.156Z,104703.06
2023-04-16T04:25:40.575Z,104862.97
2023-04-16T04:28:07.155Z,104919.06
2023-04-16T04:30:33.608Z,105001.53
2023-04-16T04:33:00.093Z,105047.50
2023-04-16T04:35:26.651Z,105099.66
2023-04-16T04:37:53.090Z,105161.47
2023-04-16T04:40:19.776Z,105149.00
2023-04-16T04:42:46.200Z,105192.59
2023-04-16T04:45:12.800Z,105307.81
2023-04-16T04:47:39.356Z,105390.00
2023-04-16T04:50:06.525Z,105507.00
2023-04-16T04:52:33.064Z,105459.00
2023-04-16T04:54:59.488Z,105711.78
2023-04-16T04:57:25.933Z,105873.16
2023-04-16T04:59:52.449Z,105923.69
2023-04-16T05:02:19.372Z,106218.25
2023-04-16T05:04:45.997Z,106346.75
2023-04-16T05:07:12.476Z,106345.63
2023-04-16T05:09:38.906Z,106452.53
2023-04-16T05:12:05.584Z,106665.28
2023-04-16T05:14:32.086Z,106885.97
2023-04-16T05:16:58.557Z,106948.00
2023-04-16T05:19:25.070Z,106796.16
2023-04-16T05:21:51.585Z,106895.78
2023-04-16T05:24:18.175Z,106921.00
2023-04-16T05:26:44.625Z,107046.81
2023-04-16T05:29:11.349Z,107189.09
2023-04-16T05:31:38.367Z,107305.31
2023-04-16T05:34:04.973Z,107541.88
2023-04-16T05:36:31.409Z,107656.38
2023-04-16T05:38:57.990Z,107723.16
2023-04-16T05:41:24.678Z,107828.13
2023-04-16T05:43:51.114Z,107821.31
2023-04-16T05:46:17.632Z,107884.47
2023-04-16T05:48:44.246Z,107810.72
2023-04-16T05:51:10.712Z,107777.88
2023-04-16T05:53:37.241Z,107828.28
2023-04-16T05:56:03.854Z,107960.03
2023-04-16T05:58:30.420Z,108071.94
2023-04-16T06:00:56.998Z,108063.38
2023-04-16T06:03:23.659Z,108262.84
2023-04-16T06:05:50.237Z,108487.59
2023-04-16T06:08:16.726Z,108880.84
2023-04-16T06:10:43.414Z,108852.16
2023-04-16T06:13:09.923Z,108957.16
2023-04-16T06:15:36.416Z,108946.69
2023-04-16T06:18:02.957Z,109170.72
2023-04-16T06:20:29.764Z,109246.97
2023-04-16T06:22:56.511Z,109201.88
2023-04-16T06:25:23.385Z,109095.22
2023-04-16T06:27:49.903Z,109103.00
2023-04-16T06:30:16.798Z,109207.28
2023-04-16T06:32:43.929Z,109083.13
2023-04-16T06:35:10.433Z,109180.84
2023-04-16T06:37:36.929Z,109290.00
2023-04-16T06:40:04.008Z,109303.53
2023-04-16T06:42:31.051Z,109149.28
2023-04-16T06:44:57.621Z,108846.97
2023-04-16T06:47:24.852Z,108762.78
2023-04-16T06:49:51.584Z,108730.69
2023-04-16T06:52:18.153Z,108579.34
2023-04-16T06:54:44.698Z,108571.81
2023-04-16T06:57:11.163Z,108557.97
2023-04-16T06:59:37.898Z,108527.41
2023-04-16T07:02:04.528Z,108511.88
2023-04-16T07:04:31.092Z,108557.09
2023-04-16T07:06:57.530Z,108529.94
2023-04-16T07:09:24.067Z,108526.72
2023-04-16T07:11:50.622Z,108517.88
2023-04-16T07:14:17.235Z,108497.19
2023-04-16T07:16:43.762Z,108466.72
2023-04-16T07:19:10.396Z,108476.34
2023-04-16T07:21:37.234Z,108495.47
2023-04-16T07:24:03.963Z,108469.44
2023-04-16T07:26:30.407Z,108430.38
2023-04-16T07:28:56.845Z,108394.69
2023-04-16T07:31:23.380Z,108399.97
2023-04-16T07:33:49.817Z,108376.56
2023-04-16T07:36:16.230Z,108334.91
2023-04-16T07:38:42.784Z,108370.50
2023-04-16T07:41:09.305Z,108143.09
2023-04-16T07:43:35.994Z,108093.66
2023-04-16T07:46:02.622Z,108146.50
2023-04-16T07:48:29.218Z,108089.25
2023-04-16T07:50:55.851Z,108054.47
2023-04-16T07:53:22.405Z,107981.56
2023-04-16T07:55:48.936Z,107966.78
2023-04-16T07:58:15.491Z,107991.09
2023-04-16T08:00:42.000Z,107985.81
2023-04-16T08:03:08.599Z,107841.16
2023-04-16T08:05:35.160Z,107930.25
2023-04-16T08:08:01.705Z,107719.72
2023-04-16T08:10:28.458Z,107669.88
2023-04-16T08:12:54.908Z,107674.97
2023-04-16T08:15:21.516Z,107665.41
2023-04-16T08:17:48.085Z,107594.38
2023-04-16T08:20:17.639Z,107619.34
2023-04-16T08:22:46.500Z,107587.16
2023-04-16T08:25:13.007Z,107412.75
2023-04-16T08:27:39.663Z,107339.88
2023-04-16T08:30:07.112Z,107358.78
2023-04-16T08:32:33.784Z,107285.84
2023-04-16T08:35:00.365Z,107214.97
2023-04-16T08:37:26.891Z,107178.19
2023-04-16T08:39:53.354Z,106972.00
2023-04-16T08:42:31.876Z,106727.59
2023-04-16T08:45:08.533Z,106725.28
2023-04-16T08:47:36.140Z,106588.78
2023-04-16T08:50:06.148Z,106399.25
2023-04-16T08:52:34.899Z,106402.97
2023-04-16T08:55:08.693Z,106201.09
2023-04-16T08:57:58.742Z,106246.69
2023-04-16T09:00:25.423Z,106180.50
2023-04-16T09:02:53.463Z,105989.31
2023-04-16T09:05:22.094Z,105903.91
2023-04-16T09:07:48.687Z,105699.25
2023-04-16T09:10:15.638Z,105582.94
2023-04-16T09:12:42.590Z,105458.66
2023-04-16T09:15:13.140Z,105389.91
2023-04-16T09:17:40.260Z,105363.00
2023-04-16T09:20:08.951Z,105330.81
2023-04-16T09:22:36.372Z,105284.63
2023-04-16T09:25:03.181Z,105242.22
2023-04-16T09:27:30.933Z,105099.47
2023-04-16T09:29:57.750Z,104997.09
2023-04-16T09:32:28.808Z,104847.56
2023-04-16T09:34:59.787Z,104661.91
2023-04-16T09:37:28.422Z,104550.59
2023-04-16T09:40:02.195Z,104504.13
2023-04-16T09:42:31.217Z,104440.44
2023-04-16T09:45:00.037Z,104405.53
2023-04-16T09:47:45.260Z,104345.72
2023-04-16T09:50:18.437Z,104276.50
2023-04-16T09:52:49.298Z,104315.34
2023-04-16T09:55:15.841Z,104318.25
2023-04-16T09:57:42.612Z,104248.72
2023-04-16T10:00:10.178Z,104126.84
2023-04-16T10:02:40.518Z,104149.97
2023-04-16T10:05:07.360Z,104125.69
2023-04-16T10:07:35.309Z,104122.56
2023-04-16T10:10:03.463Z,104113.81
2023-04-16T10:12:30.590Z,104076.03
2023-04-16T10:14:57.028Z,103935.53
2023-04-16T10:17:24.640Z,103902.84
2023-04-16T10:19:51.466Z,103907.56
2023-04-16T10:22:17.978Z,103840.41
2023-04-16T10:24:46.961Z,103774.91
2023-04-16T10:27:13.854Z,103760.56
2023-04-16T10:29:41.073Z,103777.97
2023-04-16T10:32:08.344Z,103671.41
2023-04-16T10:34:35.291Z,103661.66
2023-04-16T10:37:01.840Z,103692.66
2023-04-16T10:39:28.898Z,103685.59
2023-04-16T10:42:12.728Z,103719.31
2023-04-16T10:44:42.545Z,103670.47
2023-04-16T10:47:12.459Z,103590.38
2023-04-16T10:49:39.659Z,103495.88
2023-04-16T10:52:14.344Z,103430.63
2023-04-16T10:54:40.989Z,103411.59
2023-04-16T10:57:10.053Z,103376.63
2023-04-16T10:59:38.262Z,103357.00
2023-04-16T11:02:13.829Z,103310.16
2023-04-16T11:04:44.082Z,103346.13
2023-04-16T11:07:13.867Z,103369.63
2023-04-16T11:10:01.120Z,103335.41
2023-04-16T11:12:27.756Z,103278.34
2023-04-16T11:15:02.004Z,103206.16
2023-04-16T11:17:31.757Z,103294.81
2023-04-16T11:19:58.502Z,103217.56
2023-04-16T11:22:25.771Z,103142.22
2023-04-16T11:24:56.118Z,103177.06
2023-04-16T11:27:25.583Z,103157.06
2023-04-16T11:30:02.814Z,103167.63
2023-04-16T11:32:32.586Z,103161.56
2023-04-16T11:34:59.768Z,103029.88
2023-04-16T11:37:38.135Z,103061.84
2023-04-16T11:40:08.717Z,102993.06
2023-04-16T11:42:36.655Z,103112.69
2023-04-16T11:45:04.245Z,102985.09
2023-04-16T11:47:31.778Z,102915.97
2023-04-16T11:50:15.033Z,102938.81
2023-04-16T11:52:41.558Z,102911.03
2023-04-16T11:55:08.592Z,102924.31
2023-04-16T11:57:35.334Z,102856.38
2023-04-16T12:00:03.945Z,102897.19
2023-04-16T12:02:39.148Z,102896.75
2023-04-16T12:05:25.387Z,102819.53
2023-04-16T12:07:51.879Z,102905.34
2023-04-16T12:10:18.322Z,102815.75
2023-04-16T12:12:44.960Z,102880.13
2023-04-16T12:15:11.439Z,102842.66
2023-04-16T12:17:38.539Z,102812.63
2023-04-16T12:20:15.555Z,102770.00
2023-04-16T12:22:47.525Z,102791.69
2023-04-16T12:25:15.759Z,102829.97
2023-04-16T12:27:46.341Z,102761.25
2023-04-16T12:30:17.125Z,102758.38
2023-04-16T12:32:45.316Z,102780.72
2023-04-16T12:35:12.414Z,102763.34
2023-04-16T12:37:39.783Z,102750.09
2023-04-16T12:40:06.996Z,102766.56
2023-04-16T12:42:34.227Z,102701.72
2023-04-16T12:45:00.732Z,102747.47
2023-04-16T12:47:27.289Z,102706.00
2023-04-16T12:49:53.799Z,102719.00
2023-04-16T12:52:23.228Z,102677.16
2023-04-16T12:54:50.425Z,102577.25
2023-04-16T12:57:16.882Z,102587.59
2023-04-16T12:59:43.399Z,102589.56
2023-04-16T13:02:09.909Z,102576.59
2023-04-16T13:04:36.543Z,102583.03
2023-04-16T13:07:03.104Z,102535.84
2023-04-16T13:09:29.717Z,102557.13
2023-04-16T13:11:56.171Z,102550.91
2023-04-16T13:14:22.724Z,102523.81
2023-04-16T13:16:49.135Z,102509.28
2023-04-16T13:19:15.583Z,102500.75
2023-04-16T13:21:42.143Z,102479.38
2023-04-16T13:24:08.616Z,102420.28
2023-04-16T13:26:35.180Z,102461.56
2023-04-16T13:29:01.726Z,102449.16
2023-04-16T13:31:28.290Z,102449.09
2023-04-16T13:33:54.984Z,102435.09
2023-04-16T13:36:21.496Z,102426.25
2023-04-16T13:38:48.101Z,102444.41
2023-04-16T13:41:14.532Z,102448.19
2023-04-16T13:43:40.992Z,102436.25
2023-04-16T13:46:07.674Z,102437.06
2023-04-16T13:48:34.216Z,102439.72
2023-04-16T13:51:00.796Z,102410.66
2023-04-16T13:53:27.288Z,102427.47
2023-04-16T13:55:53.860Z,102434.97
2023-04-16T13:58:20.467Z,102341.91
2023-04-16T14:00:46.974Z,102356.25
2023-04-16T14:03:13.621Z,102402.31
2023-04-16T14:05:40.157Z,102376.28
2023-04-16T14:08:06.684Z,102324.94
2023-04-16T14:10:33.316Z,102388.41
2023-04-16T14:12:59.943Z,102352.66
2023-04-16T14:15:26.469Z,102362.50
2023-04-16T14:17:53.115Z,102353.19
2023-04-16T14:20:19.956Z,102375.38
2023-04-16T14:22:46.533Z,102367.69
2023-04-16T14:25:13.141Z,102342.06
2023-04-16T14:27:39.816Z,102360.97
2023-04-16T14:30:07.136Z,102358.22
2023-04-16T14:32:33.702Z,102347.50
2023-04-16T14:35:00.222Z,102367.91
2023-04-16T14:37:26.845Z,102352.69
2023-04-16T14:39:53.397Z,102368.19
2023-04-16T14:42:19.887Z,102396.59
2023-04-16T14:44:46.375Z,102395.47
2023-04-16T14:47:12.950Z,102415.56
2023-04-16T14:49:39.558Z,102420.13
2023-04-16T14:52:06.122Z,102418.66
2023-04-16T14:54:33.179Z,102415.06
2023-04-16T14:56:59.827Z,102386.66
2023-04-16T14:59:26.310Z,102409.53
2023-04-16T15:01:52.859Z,102419.63
2023-04-16T15:04:19.551Z,102407.72
2023-04-16T15:06:46.687Z,102373.13
2023-04-16T15:09:13.367Z,102424.03
2023-04-16T15:11:40.010Z,102411.94
2023-04-16T15:14:06.536Z,102383.88
2023-04-16T15:16:33.145Z,102398.72
2023-04-16T15:18:59.687Z,102410.16
2023-04-16T15:21:26.641Z,102409.16
2023-04-16T15:23:53.360Z,102365.44
2023-04-16T15:26:19.869Z,102338.84
2023-04-16T15:28:46.441Z,102416.66
2023-04-16T15:31:13.094Z,102406.38
2023-04-16T15:33:39.685Z,102418.13
2023-04-16T15:36:06.421Z,102406.03
2023-04-16T15:38:32.920Z,102335.56
2023-04-16T15:40:59.351Z,102393.34
2023-04-16T15:43:28.883Z,102407.84
2023-04-16T15:45:56.082Z,102408.66
2023-04-16T15:48:22.985Z,102389.75
2023-04-16T15:50:49.917Z,102406.41
2023-04-16T15:53:16.526Z,102342.91
2023-04-16T15:55:43.152Z,102338.97
2023-04-16T15:58:09.707Z,102399.75
2023-04-16T16:00:36.212Z,102350.59
2023-04-16T16:03:02.949Z,102346.19
2023-04-16T16:05:29.490Z,102396.25
2023-04-16T16:07:57.563Z,102346.66
2023-04-16T16:10:24.142Z,102384.19
2023-04-16T16:12:50.607Z,102380.56
2023-04-16T16:15:17.226Z,102388.13
2023-04-16T16:17:43.810Z,102380.94
2023-04-16T16:20:10.300Z,102381.91
2023-04-16T16:22:37.219Z,102321.06
2023-04-16T16:25:04.608Z,102389.28
2023-04-16T16:27:31.191Z,102378.34
2023-04-16T16:29:57.749Z,102374.59
2023-04-16T16:32:24.291Z,102379.50
2023-04-16T16:34:50.853Z,102376.38
2023-04-16T16:37:17.352Z,102337.88
2023-04-16T16:39:43.962Z,102389.63
2023-04-16T16:42:10.604Z,102372.75
2023-04-16T16:44:37.147Z,102401.22
2023-04-16T16:47:03.945Z,102412.63
2023-04-16T16:49:30.529Z,102338.16
2023-04-16T16:51:56.983Z,102407.25
2023-04-16T16:54:23.445Z,102374.72
2023-04-16T16:56:49.945Z,102340.78
2023-04-16T16:59:16.430Z,102411.13
2023-04-16T17:01:42.881Z,102403.44
2023-04-16T17:04:09.614Z,102340.13
2023-04-16T17:06:36.366Z,102413.56
2023-04-16T17:09:02.982Z,102412.91
2023-04-16T17:11:29.532Z,102366.22
2023-04-16T17:13:56.074Z,102425.50
2023-04-16T17:16:22.686Z,102432.78
2023-04-16T17:18:49.559Z,102421.69
2023-04-16T17:21:16.882Z,102401.59
2023-04-16T17:23:43.527Z,102370.13
2023-04-16T17:26:10.154Z,102419.75
2023-04-16T17:28:36.594Z,102422.84
2023-04-16T17:31:03.048Z,102439.97
2023-04-16T17:33:29.696Z,102445.19
2023-04-16T17:35:56.293Z,102451.69
2023-04-16T17:38:22.743Z,102434.84
2023-04-16T17:40:49.170Z,102463.91
2023-04-16T17:43:15.586Z,102396.06
2023-04-16T17:45:42.131Z,102469.09
2023-04-16T17:48:08.664Z,102431.25
2023-04-16T17:50:36.954Z,102429.47
2023-04-16T17:53:04.749Z,102450.38
2023-04-16T17:55:31.427Z,102454.41
2023-04-16T17:57:58.059Z,102399.31
2023-04-16T18:00:24.557Z,102439.84
2023-04-16T18:02:51.198Z,102466.75
2023-04-16T18:05:17.812Z,102485.94
2023-04-16T18:07:44.294Z,102460.09
2023-04-16T18:10:10.835Z,102416.59
2023-04-16T18:12:37.278Z,102403.69
2023-04-16T18:15:04.266Z,102490.75
2023-04-16T18:17:30.704Z,102485.47
2023-04-16T18:19:57.369Z,102504.91
2023-04-16T18:22:25.718Z,102504.75
2023-04-16T18:24:53.906Z,102496.88
2023-04-16T18:27:20.302Z,102509.22
2023-04-16T18:29:46.741Z,102441.50
2023-04-16T18:32:13.239Z,102520.00
2023-04-16T18:34:39.895Z,102518.84
2023-04-16T18:37:06.520Z,102504.44
2023-04-16T18:39:33.516Z,102471.75
2023-04-16T18:42:00.064Z,102529.66
2023-04-16T18:44:26.606Z,102467.84
2023-04-16T18:46:53.104Z,102481.13
2023-04-16T18:49:19.558Z,102523.31
2023-04-16T18:51:46.033Z,102533.84
2023-04-16T18:54:12.552Z,102535.19
2023-04-16T18:56:39.120Z,102552.66
2023-04-16T18:59:05.902Z,102561.38
2023-04-16T19:01:32.412Z,102494.56
2023-04-16T19:03:59.086Z,102562.47
2023-04-16T19:06:25.569Z,102573.47
2023-04-16T19:08:52.004Z,102569.63
2023-04-16T19:11:18.545Z,102577.22
2023-04-16T19:13:45.096Z,102577.84
2023-04-16T19:16:11.928Z,102594.91
2023-04-16T19:18:38.844Z,102600.16
2023-04-16T19:21:05.393Z,102557.09
2023-04-16T19:23:31.912Z,102529.97
2023-04-16T19:25:58.439Z,102569.31
2023-04-16T19:28:25.638Z,102598.91
2023-04-16T19:30:53.026Z,102552.28
2023-04-16T19:33:19.775Z,102551.41
2023-04-16T19:35:47.070Z,102628.97
2023-04-16T19:38:13.635Z,102633.00
2023-04-16T19:40:40.175Z,102642.97
2023-04-16T19:43:06.747Z,102602.00
2023-04-16T19:45:33.205Z,102635.66
2023-04-16T19:47:59.707Z,102646.16
2023-04-16T19:50:26.205Z,102667.25
2023-04-16T19:52:52.659Z,102672.75
2023-04-16T19:55:19.185Z,102681.53
2023-04-16T19:57:47.818Z,102639.16
2023-04-16T20:00:15.009Z,102684.50
2023-04-16T20:02:41.635Z,102708.28
2023-04-16T20:05:08.758Z,102704.84
2023-04-16T20:07:35.467Z,102718.94
2023-04-16T20:10:02.073Z,102707.69
2023-04-16T20:12:28.547Z,102698.88
2023-04-16T20:14:55.016Z,102701.44
2023-04-16T20:17:21.525Z,102630.22
2023-04-16T20:19:48.063Z,102692.03
2023-04-16T20:22:14.481Z,102670.66
2023-04-16T20:24:41.192Z,102710.00
2023-04-16T20:27:08.767Z,102632.78
2023-04-16T20:29:35.333Z,102688.16
2023-04-16T20:32:01.721Z,102649.97
2023-04-16T20:34:28.128Z,102683.34
2023-04-16T20:36:54.603Z,102636.34
2023-04-16T20:39:21.026Z,102634.53
2023-04-16T20:41:47.898Z,102654.81
2023-04-16T20:44:14.410Z,102655.69
2023-04-16T20:46:40.983Z,102643.78
2023-04-16T20:49:07.463Z,102631.41
2023-04-16T20:51:33.957Z,102556.00
2023-04-16T20:54:00.472Z,102601.31
2023-04-16T20:56:26.999Z,102631.72
2023-04-16T20:58:53.687Z,102617.34
2023-04-16T21:01:20.261Z,102541.66
2023-04-16T21:03:46.984Z,102554.69
2023-04-16T21:06:13.559Z,102569.03
2023-04-16T21:08:39.974Z,102618.16
2023-04-16T21:11:06.522Z,102623.75
2023-04-16T21:13:32.987Z,102608.13
2023-04-16T21:15:59.595Z,102655.03
2023-04-16T21:18:26.195Z,102604.97
2023-04-16T21:20:52.734Z,102650.25
2023-04-16T21:23:19.274Z,102687.06
2023-04-16T21:25:45.797Z,102681.97
2023-04-16T21:28:12.422Z,102696.72
2023-04-16T21:30:39.340Z,102695.88
2023-04-16T21:33:06.572Z,102734.84
2023-04-16T21:35:33.256Z,102744.22
2023-04-16T21:37:59.736Z,102712.75
2023-04-16T21:40:26.412Z,102725.53
2023-04-16T21:42:52.982Z,102811.59
2023-04-16T21:45:19.673Z,102818.06
2023-04-16T21:47:46.189Z,102816.19
2023-04-16T21:50:12.924Z,102833.19
2023-04-16T21:52:39.486Z,102864.81
2023-04-16T21:55:08.148Z,102791.19
2023-04-16T21:57:34.583Z,102787.50
2023-04-16T22:00:01.037Z,102858.00
2023-04-16T22:04:53.963Z,102905.56
2023-04-16T22:07:20.477Z,102882.44
2023-04-16T22:09:46.950Z,102905.81
2023-04-16T22:12:13.394Z,102875.28
2023-04-16T22:14:44.258Z,102878.72
2023-04-16T22:17:15.790Z,102913.38
2023-04-16T22:19:42.797Z,102923.53
2023-04-16T22:22:09.212Z,102823.78
2023-04-16T22:24:36.112Z,102832.84
2023-04-16T22:27:02.580Z,102777.78
2023-04-16T22:29:29.227Z,102861.44
2023-04-16T22:31:55.775Z,102887.34
2023-04-16T22:34:22.282Z,102885.28
2023-04-16T22:36:48.754Z,102884.59
2023-04-16T22:39:15.204Z,102828.56
2023-04-16T22:41:41.592Z,102872.41
2023-04-16T22:44:08.090Z,102879.81
2023-04-16T22:46:34.777Z,102899.13
2023-04-16T22:49:01.434Z,102909.97
2023-04-16T22:51:28.004Z,102916.13
2023-04-16T22:53:54.665Z,102920.63
2023-04-16T22:56:21.142Z,102844.19
2023-04-16T22:58:47.679Z,102839.28
2023-04-16T23:01:14.199Z,102942.88
2023-04-16T23:03:40.765Z,102946.41
2023-04-16T23:06:07.287Z,102963.81
2023-04-16T23:08:33.696Z,102982.28
2023-04-16T23:11:00.188Z,102947.69
2023-04-16T23:13:26.718Z,103054.47
2023-04-16T23:15:53.196Z,103076.69
2023-04-16T23:18:19.676Z,103076.00
2023-04-16T23:20:46.121Z,103084.09
2023-04-16T23:23:12.614Z,103060.03
2023-04-16T23:25:41.519Z,103122.03
2023-04-16T23:28:08.014Z,103117.81
2023-04-16T23:30:34.493Z,103130.59
2023-04-16T23:33:00.995Z,103094.47
2023-04-16T23:35:27.425Z,103133.63
2023-04-16T23:37:53.864Z,103140.34
2023-04-16T23:40:20.522Z,103140.47
2023-04-16T23:42:47.071Z,103123.81
2023-04-16T23:45:13.591Z,103128.91
2023-04-16T23:47:40.123Z,103135.34
2023-04-16T23:50:07.149Z,103094.28
2023-04-16T23:52:33.586Z,103139.06
2023-04-16T23:54:59.961Z,103057.81
2023-04-16T23:57:26.433Z,103061.19
2023-04-16T23:59:52.895Z,103063.59
